sensor_id;sensor_type;location;lat;lon;timestamp;pressure;altitude;pressure_sealevel;temperature;humidity
29569;BME280;16501;51.462;14.346;2023-07-30T00:01:10;99518.97;;;17.41;100.00
29569;BME280;16501;51.462;14.346;2023-07-30T00:03:35;99530.63;;;17.37;100.00
29569;BME280;16501;51.462;14.346;2023-07-30T00:06:01;99518.25;;;17.21;100.00
29569;BME280;16501;51.462;14.346;2023-07-30T00:08:26;99517.59;;;17.28;100.00
29569;BME280;16501;51.462;14.346;2023-07-30T00:10:51;99504.44;;;17.12;100.00
29569;BME280;16501;51.462;14.346;2023-07-30T00:13:17;99534.28;;;17.32;100.00
29569;BME280;16501;51.462;14.346;2023-07-30T00:15:42;99528.94;;;17.28;100.00
29569;BME280;16501;51.462;14.346;2023-07-30T00:18:10;99526.19;;;17.23;100.00
29569;BME280;16501;51.462;14.346;2023-07-30T00:20:35;99501.88;;;17.14;100.00
29569;BME280;16501;51.462;14.346;2023-07-30T00:23:01;99520.28;;;17.21;100.00
29569;BME280;16501;51.462;14.346;2023-07-30T00:25:26;99520.28;;;17.21;100.00
29569;BME280;16501;51.462;14.346;2023-07-30T00:27:51;99510.41;;;17.08;100.00
29569;BME280;16501;51.462;14.346;2023-07-30T00:30:16;99512.50;;;17.08;100.00
29569;BME280;16501;51.462;14.346;2023-07-30T00:32:42;99523.44;;;17.17;100.00
29569;BME280;16501;51.462;14.346;2023-07-30T00:35:11;99522.00;;;17.10;100.00
29569;BME280;16501;51.462;14.346;2023-07-30T00:37:36;99532.78;;;17.12;100.00
29569;BME280;16501;51.462;14.346;2023-07-30T00:40:03;99529.72;;;17.10;100.00
29569;BME280;16501;51.462;14.346;2023-07-30T00:42:30;99527.09;;;17.12;100.00
29569;BME280;16501;51.462;14.346;2023-07-30T00:44:56;99506.16;;;17.02;100.00
29569;BME280;16501;51.462;14.346;2023-07-30T00:47:21;99511.03;;;17.01;100.00
29569;BME280;16501;51.462;14.346;2023-07-30T00:49:48;99508.59;;;17.11;100.00
29569;BME280;16501;51.462;14.346;2023-07-30T00:52:16;99518.38;;;17.10;100.00
29569;BME280;16501;51.462;14.346;2023-07-30T00:54:41;99499.59;;;16.93;100.00
29569;BME280;16501;51.462;14.346;2023-07-30T00:57:06;99509.75;;;17.02;100.00
29569;BME280;16501;51.462;14.346;2023-07-30T00:59:32;99513.44;;;16.97;100.00
29569;BME280;16501;51.462;14.346;2023-07-30T01:01:58;99514.88;;;17.04;100.00
29569;BME280;16501;51.462;14.346;2023-07-30T01:04:24;99519.75;;;17.03;100.00
29569;BME280;16501;51.462;14.346;2023-07-30T01:06:49;99529.56;;;17.02;100.00
29569;BME280;16501;51.462;14.346;2023-07-30T01:09:14;99533.25;;;16.97;100.00
29569;BME280;16501;51.462;14.346;2023-07-30T01:11:40;99514.63;;;16.83;100.00
29569;BME280;16501;51.462;14.346;2023-07-30T01:14:21;99521.22;;;16.91;100.00
29569;BME280;16501;51.462;14.346;2023-07-30T01:16:47;99481.41;;;16.64;100.00
29569;BME280;16501;51.462;14.346;2023-07-30T01:19:13;99525.59;;;16.92;100.00
29569;BME280;16501;51.462;14.346;2023-07-30T01:21:38;99510.41;;;16.70;100.00
29569;BME280;16501;51.462;14.346;2023-07-30T01:24:04;99532.38;;;16.83;100.00
29569;BME280;16501;51.462;14.346;2023-07-30T01:26:50;99517.28;;;16.75;100.00
29569;BME280;16501;51.462;14.346;2023-07-30T01:29:22;99518.53;;;16.80;100.00
29569;BME280;16501;51.462;14.346;2023-07-30T01:31:53;99526.25;;;16.79;100.00
29569;BME280;16501;51.462;14.346;2023-07-30T01:34:20;99517.22;;;16.81;100.00
29569;BME280;16501;51.462;14.346;2023-07-30T01:36:46;99516.00;;;16.76;100.00
29569;BME280;16501;51.462;14.346;2023-07-30T01:39:13;99523.97;;;16.77;100.00
29569;BME280;16501;51.462;14.346;2023-07-30T01:41:39;99532.47;;;16.77;100.00
29569;BME280;16501;51.462;14.346;2023-07-30T01:44:05;99536.81;;;16.78;100.00
29569;BME280;16501;51.462;14.346;2023-07-30T01:46:30;99533.81;;;16.71;100.00
29569;BME280;16501;51.462;14.346;2023-07-30T01:48:55;99538.94;;;16.72;100.00
29569;BME280;16501;51.462;14.346;2023-07-30T01:51:20;99527.75;;;16.61;100.00
29569;BME280;16501;51.462;14.346;2023-07-30T01:53:46;99534.66;;;16.66;100.00
29569;BME280;16501;51.462;14.346;2023-07-30T01:56:11;99536.25;;;16.61;100.00
29569;BME280;16501;51.462;14.346;2023-07-30T01:58:36;99532.44;;;16.58;100.00
29569;BME280;16501;51.462;14.346;2023-07-30T02:01:01;99543.16;;;16.66;100.00
29569;BME280;16501;51.462;14.346;2023-07-30T02:03:27;99535.78;;;16.57;100.00
29569;BME280;16501;51.462;14.346;2023-07-30T02:05:52;99534.53;;;16.52;100.00
29569;BME280;16501;51.462;14.346;2023-07-30T02:08:18;99542.81;;;16.50;100.00
29569;BME280;16501;51.462;14.346;2023-07-30T02:10:43;99540.69;;;16.56;100.00
29569;BME280;16501;51.462;14.346;2023-07-30T02:13:08;99555.00;;;16.64;100.00
29569;BME280;16501;51.462;14.346;2023-07-30T02:15:33;99552.41;;;16.66;100.00
29569;BME280;16501;51.462;14.346;2023-07-30T02:17:58;99565.84;;;16.60;100.00
29569;BME280;16501;51.462;14.346;2023-07-30T02:20:24;99566.09;;;16.62;100.00
29569;BME280;16501;51.462;14.346;2023-07-30T02:22:49;99570.22;;;16.61;100.00
29569;BME280;16501;51.462;14.346;2023-07-30T02:25:14;99567.44;;;16.55;100.00
29569;BME280;16501;51.462;14.346;2023-07-30T02:27:40;99566.47;;;16.53;100.00
29569;BME280;16501;51.462;14.346;2023-07-30T02:30:09;99557.03;;;16.45;100.00
29569;BME280;16501;51.462;14.346;2023-07-30T02:32:34;99550.66;;;16.38;100.00
29569;BME280;16501;51.462;14.346;2023-07-30T02:34:59;99537.16;;;16.26;100.00
29569;BME280;16501;51.462;14.346;2023-07-30T02:37:24;99519.31;;;16.12;100.00
29569;BME280;16501;51.462;14.346;2023-07-30T02:39:50;99552.72;;;16.38;100.00
29569;BME280;16501;51.462;14.346;2023-07-30T02:42:15;99552.72;;;16.38;100.00
29569;BME280;16501;51.462;14.346;2023-07-30T02:44:40;99571.09;;;16.50;100.00
29569;BME280;16501;51.462;14.346;2023-07-30T02:47:05;99573.19;;;16.50;100.00
29569;BME280;16501;51.462;14.346;2023-07-30T02:49:31;99572.94;;;16.48;100.00
29569;BME280;16501;51.462;14.346;2023-07-30T02:51:56;99558.09;;;16.42;100.00
29569;BME280;16501;51.462;14.346;2023-07-30T02:54:21;99556.53;;;16.40;100.00
29569;BME280;16501;51.462;14.346;2023-07-30T02:56:47;99555.03;;;16.39;100.00
29569;BME280;16501;51.462;14.346;2023-07-30T02:59:12;99567.28;;;16.48;100.00
29569;BME280;16501;51.462;14.346;2023-07-30T03:01:37;99560.38;;;16.43;100.00
29569;BME280;16501;51.462;14.346;2023-07-30T03:04:03;99559.44;;;16.35;100.00
29569;BME280;16501;51.462;14.346;2023-07-30T03:06:29;99560.50;;;16.32;100.00
29569;BME280;16501;51.462;14.346;2023-07-30T03:08:54;99577.06;;;16.47;100.00
29569;BME280;16501;51.462;14.346;2023-07-30T03:11:19;99571.41;;;16.47;100.00
29569;BME280;16501;51.462;14.346;2023-07-30T03:13:44;99574.75;;;16.45;100.00
29569;BME280;16501;51.462;14.346;2023-07-30T03:16:10;99575.34;;;16.38;100.00
29569;BME280;16501;51.462;14.346;2023-07-30T03:18:35;99569.53;;;16.30;100.00
29569;BME280;16501;51.462;14.346;2023-07-30T03:21:00;99576.13;;;16.38;100.00
29569;BME280;16501;51.462;14.346;2023-07-30T03:23:26;99586.38;;;16.42;100.00
29569;BME280;16501;51.462;14.346;2023-07-30T03:25:52;99572.38;;;16.30;100.00
29569;BME280;16501;51.462;14.346;2023-07-30T03:28:17;99577.19;;;16.35;100.00
29569;BME280;16501;51.462;14.346;2023-07-30T03:30:42;99577.00;;;16.28;100.00
29569;BME280;16501;51.462;14.346;2023-07-30T03:33:08;99564.44;;;16.23;100.00
29569;BME280;16501;51.462;14.346;2023-07-30T03:35:33;99584.38;;;16.36;100.00
29569;BME280;16501;51.462;14.346;2023-07-30T03:37:58;99568.50;;;16.28;100.00
29569;BME280;16501;51.462;14.346;2023-07-30T03:40:26;99582.06;;;16.35;100.00
29569;BME280;16501;51.462;14.346;2023-07-30T03:42:53;99578.03;;;16.30;100.00
29569;BME280;16501;51.462;14.346;2023-07-30T03:45:19;99582.84;;;16.35;100.00
29569;BME280;16501;51.462;14.346;2023-07-30T03:47:44;99590.31;;;16.33;100.00
29569;BME280;16501;51.462;14.346;2023-07-30T03:50:09;99593.16;;;16.33;100.00
29569;BME280;16501;51.462;14.346;2023-07-30T03:52:34;99569.63;;;16.19;100.00
29569;BME280;16501;51.462;14.346;2023-07-30T03:55:00;99587.03;;;16.29;100.00
29569;BME280;16501;51.462;14.346;2023-07-30T03:57:25;99578.53;;;16.29;100.00
29569;BME280;16501;51.462;14.346;2023-07-30T03:59:50;99584.38;;;16.36;100.00
29569;BME280;16501;51.462;14.346;2023-07-30T04:02:16;99566.56;;;16.17;100.00
29569;BME280;16501;51.462;14.346;2023-07-30T04:04:44;99580.06;;;16.30;100.00
29569;BME280;16501;51.462;14.346;2023-07-30T04:07:11;99581.53;;;16.36;100.00
29569;BME280;16501;51.462;14.346;2023-07-30T04:09:36;99575.66;;;16.34;100.00
29569;BME280;16501;51.462;14.346;2023-07-30T04:12:02;99574.06;;;16.39;100.00
29569;BME280;16501;51.462;14.346;2023-07-30T04:14:27;99576.59;;;16.43;100.00
29569;BME280;16501;51.462;14.346;2023-07-30T04:16:52;99570.41;;;16.44;100.00
29569;BME280;16501;51.462;14.346;2023-07-30T04:19:17;99566.28;;;16.45;100.00
29569;BME280;16501;51.462;14.346;2023-07-30T04:21:43;99594.91;;;16.61;100.00
29569;BME280;16501;51.462;14.346;2023-07-30T04:24:08;99551.66;;;16.41;100.00
29569;BME280;16501;51.462;14.346;2023-07-30T04:26:33;99587.91;;;16.67;100.00
29569;BME280;16501;51.462;14.346;2023-07-30T04:28:58;99582.25;;;16.67;100.00
29569;BME280;16501;51.462;14.346;2023-07-30T04:31:23;99601.09;;;16.84;100.00
29569;BME280;16501;51.462;14.346;2023-07-30T04:33:49;99602.66;;;16.85;100.00
29569;BME280;16501;51.462;14.346;2023-07-30T04:36:14;99600.63;;;16.80;100.00
29569;BME280;16501;51.462;14.346;2023-07-30T04:38:39;99607.00;;;16.86;100.00
29569;BME280;16501;51.462;14.346;2023-07-30T04:41:05;99610.00;;;16.93;100.00
29569;BME280;16501;51.462;14.346;2023-07-30T04:43:30;99611.06;;;16.90;100.00
29569;BME280;16501;51.462;14.346;2023-07-30T04:45:55;99614.22;;;16.87;100.00
29569;BME280;16501;51.462;14.346;2023-07-30T04:48:20;99607.03;;;16.80;100.00
29569;BME280;16501;51.462;14.346;2023-07-30T04:50:46;99575.47;;;16.51;100.00
29569;BME280;16501;51.462;14.346;2023-07-30T04:53:11;99606.88;;;16.72;100.00
29569;BME280;16501;51.462;14.346;2023-07-30T04:55:36;99606.06;;;16.77;100.00
29569;BME280;16501;51.462;14.346;2023-07-30T04:58:01;99579.88;;;16.71;100.00
29569;BME280;16501;51.462;14.346;2023-07-30T05:00:29;99588.28;;;16.77;100.00
29569;BME280;16501;51.462;14.346;2023-07-30T05:02:54;99586.94;;;16.84;100.00
29569;BME280;16501;51.462;14.346;2023-07-30T05:05:19;99576.44;;;16.78;100.00
29569;BME280;16501;51.462;14.346;2023-07-30T05:07:50;99565.09;;;16.78;100.00
29569;BME280;16501;51.462;14.346;2023-07-30T05:10:15;99573.97;;;16.94;100.00
29569;BME280;16501;51.462;14.346;2023-07-30T05:12:41;99582.06;;;17.03;100.00
29569;BME280;16501;51.462;14.346;2023-07-30T05:15:06;99580.56;;;17.02;100.00
29569;BME280;16501;51.462;14.346;2023-07-30T05:17:32;99582.84;;;17.04;100.00
29569;BME280;16501;51.462;14.346;2023-07-30T05:19:57;99584.00;;;17.14;100.00
29569;BME280;16501;51.462;14.346;2023-07-30T05:22:23;99572.06;;;17.21;100.00
29569;BME280;16501;51.462;14.346;2023-07-30T05:24:50;99579.44;;;17.43;100.00
29569;BME280;16501;51.462;14.346;2023-07-30T05:27:15;99572.94;;;17.48;100.00
29569;BME280;16501;51.462;14.346;2023-07-30T05:29:41;99571.66;;;17.49;100.00
29569;BME280;16501;51.462;14.346;2023-07-30T05:32:07;99588.09;;;17.70;100.00
29569;BME280;16501;51.462;14.346;2023-07-30T05:34:32;99591.34;;;17.74;100.00
29569;BME280;16501;51.462;14.346;2023-07-30T05:36:57;99592.50;;;17.84;100.00
29569;BME280;16501;51.462;14.346;2023-07-30T05:39:22;99582.19;;;17.87;100.00
29569;BME280;16501;51.462;14.346;2023-07-30T05:41:48;99588.63;;;18.01;100.00
29569;BME280;16501;51.462;14.346;2023-07-30T05:44:13;99586.91;;;17.98;100.00
29569;BME280;16501;51.462;14.346;2023-07-30T05:46:38;99579.78;;;17.91;100.00
29569;BME280;16501;51.462;14.346;2023-07-30T05:49:03;99585.53;;;17.85;100.00
29569;BME280;16501;51.462;14.346;2023-07-30T05:51:32;99574.56;;;17.76;100.00
29569;BME280;16501;51.462;14.346;2023-07-30T05:53:57;99573.91;;;17.70;100.00
29569;BME280;16501;51.462;14.346;2023-07-30T05:56:22;99591.66;;;17.89;100.00
29569;BME280;16501;51.462;14.346;2023-07-30T05:58:47;99601.47;;;17.88;100.00
29569;BME280;16501;51.462;14.346;2023-07-30T06:01:13;99604.22;;;17.94;100.00
29569;BME280;16501;51.462;14.346;2023-07-30T06:03:38;99595.41;;;17.98;100.00
29569;BME280;16501;51.462;14.346;2023-07-30T06:06:04;99598.47;;;18.00;100.00
29569;BME280;16501;51.462;14.346;2023-07-30T06:08:29;99610.06;;;18.15;100.00
29569;BME280;16501;51.462;14.346;2023-07-30T06:10:56;99599.03;;;18.12;100.00
29569;BME280;16501;51.462;14.346;2023-07-30T06:13:23;99611.56;;;18.16;100.00
29569;BME280;16501;51.462;14.346;2023-07-30T06:15:48;99609.69;;;18.05;100.00
29569;BME280;16501;51.462;14.346;2023-07-30T06:18:14;99606.66;;;18.03;100.00
29569;BME280;16501;51.462;14.346;2023-07-30T06:20:39;99618.44;;;18.07;100.00
29569;BME280;16501;51.462;14.346;2023-07-30T06:23:04;99620.06;;;18.03;100.00
29569;BME280;16501;51.462;14.346;2023-07-30T06:25:30;99620.50;;;18.07;100.00
29569;BME280;16501;51.462;14.346;2023-07-30T06:27:56;99622.53;;;17.93;100.00
29569;BME280;16501;51.462;14.346;2023-07-30T06:30:23;99636.22;;;18.08;100.00
29569;BME280;16501;51.462;14.346;2023-07-30T06:32:49;99630.25;;;18.12;100.00
29569;BME280;16501;51.462;14.346;2023-07-30T06:35:14;99634.06;;;18.14;100.00
29569;BME280;16501;51.462;14.346;2023-07-30T06:37:39;99637.34;;;18.18;100.00
29569;BME280;16501;51.462;14.346;2023-07-30T06:40:05;99649.19;;;18.36;100.00
29569;BME280;16501;51.462;14.346;2023-07-30T06:42:31;99653.69;;;18.44;100.00
29569;BME280;16501;51.462;14.346;2023-07-30T06:44:56;99648.75;;;18.45;100.00
29569;BME280;16501;51.462;14.346;2023-07-30T06:47:22;99650.50;;;18.48;100.00
29569;BME280;16501;51.462;14.346;2023-07-30T06:49:47;99640.25;;;18.58;100.00
29569;BME280;16501;51.462;14.346;2023-07-30T06:52:12;99639.16;;;18.48;100.00
29569;BME280;16501;51.462;14.346;2023-07-30T06:54:37;99638.03;;;18.51;100.00
29569;BME280;16501;51.462;14.346;2023-07-30T06:57:03;99641.88;;;18.54;100.00
29569;BME280;16501;51.462;14.346;2023-07-30T06:59:28;99648.13;;;18.65;100.00
29569;BME280;16501;51.462;14.346;2023-07-30T07:01:53;99643.97;;;18.53;100.00
29569;BME280;16501;51.462;14.346;2023-07-30T07:04:19;99650.31;;;18.73;100.00
29569;BME280;16501;51.462;14.346;2023-07-30T07:06:44;99652.81;;;18.76;100.00
29569;BME280;16501;51.462;14.346;2023-07-30T07:09:09;99646.81;;;18.80;100.00
29569;BME280;16501;51.462;14.346;2023-07-30T07:11:34;99655.38;;;18.93;100.00
29569;BME280;16501;51.462;14.346;2023-07-30T07:13:59;99645.19;;;18.98;100.00
29569;BME280;16501;51.462;14.346;2023-07-30T07:16:25;99654.94;;;19.02;100.00
29569;BME280;16501;51.462;14.346;2023-07-30T07:18:50;99661.47;;;19.11;100.00
29569;BME280;16501;51.462;14.346;2023-07-30T07:21:16;99659.94;;;19.10;100.00
29569;BME280;16501;51.462;14.346;2023-07-30T07:23:41;99657.56;;;19.00;100.00
29569;BME280;16501;51.462;14.346;2023-07-30T07:26:06;99633.41;;;18.94;100.00
29569;BME280;16501;51.462;14.346;2023-07-30T07:28:31;99655.56;;;19.09;100.00
29569;BME280;16501;51.462;14.346;2023-07-30T07:30:57;99649.25;;;19.16;100.00
29569;BME280;16501;51.462;14.346;2023-07-30T07:33:22;99638.09;;;19.18;100.00
29569;BME280;16501;51.462;14.346;2023-07-30T07:35:47;99644.84;;;19.28;100.00
29569;BME280;16501;51.462;14.346;2023-07-30T07:38:14;99659.00;;;19.41;100.00
29569;BME280;16501;51.462;14.346;2023-07-30T07:40:39;99655.72;;;19.51;100.00
29569;BME280;16501;51.462;14.346;2023-07-30T07:43:06;99649.81;;;19.49;100.00
29569;BME280;16501;51.462;14.346;2023-07-30T07:45:31;99641.03;;;19.60;100.00
29569;BME280;16501;51.462;14.346;2023-07-30T07:47:56;99647.53;;;19.82;100.00
29569;BME280;16501;51.462;14.346;2023-07-30T07:50:22;99653.38;;;19.97;100.00
29569;BME280;16501;51.462;14.346;2023-07-30T07:52:47;99653.47;;;20.05;100.00
29569;BME280;16501;51.462;14.346;2023-07-30T07:55:12;99652.44;;;20.15;100.00
29569;BME280;16501;51.462;14.346;2023-07-30T07:57:37;99659.03;;;20.31;100.00
29569;BME280;16501;51.462;14.346;2023-07-30T08:00:03;99648.59;;;20.34;100.00
29569;BME280;16501;51.462;14.346;2023-07-30T08:02:30;99652.56;;;20.31;100.00
29569;BME280;16501;51.462;14.346;2023-07-30T08:04:55;99664.84;;;20.26;100.00
29569;BME280;16501;51.462;14.346;2023-07-30T08:07:21;99643.91;;;20.15;100.00
29569;BME280;16501;51.462;14.346;2023-07-30T08:09:46;99633.75;;;20.28;100.00
29569;BME280;16501;51.462;14.346;2023-07-30T08:12:11;99649.91;;;20.54;100.00
29569;BME280;16501;51.462;14.346;2023-07-30T08:14:37;99635.22;;;20.71;100.00
29569;BME280;16501;51.462;14.346;2023-07-30T08:17:07;99628.50;;;20.89;100.00
29569;BME280;16501;51.462;14.346;2023-07-30T08:19:33;99630.69;;;21.12;100.00
29569;BME280;16501;51.462;14.346;2023-07-30T08:21:58;99633.97;;;21.16;100.00
29569;BME280;16501;51.462;14.346;2023-07-30T08:24:24;99642.72;;;21.18;100.00
29569;BME280;16501;51.462;14.346;2023-07-30T08:26:49;99620.84;;;21.13;100.00
29569;BME280;16501;51.462;14.346;2023-07-30T08:29:14;99629.44;;;21.28;100.00
29569;BME280;16501;51.462;14.346;2023-07-30T08:31:40;99639.19;;;21.41;100.00
29569;BME280;16501;51.462;14.346;2023-07-30T08:34:06;99633.56;;;21.56;100.00
29569;BME280;16501;51.462;14.346;2023-07-30T08:36:31;99632.44;;;21.67;100.00
29569;BME280;16501;51.462;14.346;2023-07-30T08:38:57;99629.97;;;21.71;100.00
29569;BME280;16501;51.462;14.346;2023-07-30T08:41:22;99632.13;;;21.86;100.00
29569;BME280;16501;51.462;14.346;2023-07-30T08:43:48;99618.59;;;21.94;100.00
29569;BME280;16501;51.462;14.346;2023-07-30T08:46:15;99633.28;;;22.14;99.86
29569;BME280;16501;51.462;14.346;2023-07-30T08:48:40;99638.03;;;22.19;99.25
29569;BME280;16501;51.462;14.346;2023-07-30T08:51:05;99627.75;;;22.23;98.49
29569;BME280;16501;51.462;14.346;2023-07-30T08:53:30;99629.47;;;22.34;97.77
29569;BME280;16501;51.462;14.346;2023-07-30T08:55:57;99633.28;;;22.45;94.70
29569;BME280;16501;51.462;14.346;2023-07-30T08:58:25;99652.50;;;22.52;92.23
29569;BME280;16501;51.462;14.346;2023-07-30T09:00:53;99641.31;;;22.54;94.17
29569;BME280;16501;51.462;14.346;2023-07-30T09:03:20;99647.00;;;22.54;91.25
29569;BME280;16501;51.462;14.346;2023-07-30T09:05:47;99634.06;;;22.37;93.69
29569;BME280;16501;51.462;14.346;2023-07-30T09:08:14;99624.72;;;22.60;92.97
29569;BME280;16501;51.462;14.346;2023-07-30T09:10:39;99624.13;;;22.69;91.35
29569;BME280;16501;51.462;14.346;2023-07-30T09:13:05;99631.16;;;22.84;92.43
29569;BME280;16501;51.462;14.346;2023-07-30T09:15:31;99638.75;;;22.89;90.92
29569;BME280;16501;51.462;14.346;2023-07-30T09:17:57;99626.91;;;23.00;90.72
29569;BME280;16501;51.462;14.346;2023-07-30T09:20:22;99624.22;;;23.02;86.45
29569;BME280;16501;51.462;14.346;2023-07-30T09:22:48;99640.84;;;22.96;87.97
29569;BME280;16501;51.462;14.346;2023-07-30T09:25:18;99636.38;;;23.18;89.08
29569;BME280;16501;51.462;14.346;2023-07-30T09:27:48;99637.88;;;23.27;87.27
29569;BME280;16501;51.462;14.346;2023-07-30T09:30:13;99619.97;;;23.26;85.40
29569;BME280;16501;51.462;14.346;2023-07-30T09:32:38;99615.56;;;23.33;84.97
29569;BME280;16501;51.462;14.346;2023-07-30T09:35:07;99632.88;;;23.43;83.25
29569;BME280;16501;51.462;14.346;2023-07-30T09:37:40;99634.66;;;23.23;84.01
29569;BME280;16501;51.462;14.346;2023-07-30T09:40:09;99633.16;;;23.22;84.10
29569;BME280;16501;51.462;14.346;2023-07-30T09:42:36;99624.78;;;23.57;83.14
29569;BME280;16501;51.462;14.346;2023-07-30T09:45:05;99615.09;;;23.52;84.21
29569;BME280;16501;51.462;14.346;2023-07-30T09:47:32;99609.72;;;23.15;82.54
29569;BME280;16501;51.462;14.346;2023-07-30T09:49:59;99621.38;;;23.02;83.15
29569;BME280;16501;51.462;14.346;2023-07-30T09:52:24;99627.69;;;22.93;83.21
29569;BME280;16501;51.462;14.346;2023-07-30T09:54:51;99613.63;;;22.79;83.92
29569;BME280;16501;51.462;14.346;2023-07-30T09:57:17;99601.19;;;23.08;84.61
29569;BME280;16501;51.462;14.346;2023-07-30T09:59:42;99615.38;;;23.31;85.02
29569;BME280;16501;51.462;14.346;2023-07-30T10:02:10;99631.41;;;23.34;86.61
29569;BME280;16501;51.462;14.346;2023-07-30T10:04:39;99624.59;;;23.22;83.84
29569;BME280;16501;51.462;14.346;2023-07-30T10:07:08;99634.53;;;23.13;79.20
29569;BME280;16501;51.462;14.346;2023-07-30T10:09:39;99621.38;;;23.02;78.69
29569;BME280;16501;51.462;14.346;2023-07-30T10:12:16;99627.50;;;22.91;78.83
29569;BME280;16501;51.462;14.346;2023-07-30T10:14:41;99625.38;;;23.07;76.43
29569;BME280;16501;51.462;14.346;2023-07-30T10:17:09;99612.22;;;23.11;75.43
29569;BME280;16501;51.462;14.346;2023-07-30T10:19:35;99625.91;;;23.61;74.96
29569;BME280;16501;51.462;14.346;2023-07-30T10:24:38;99630.84;;;24.26;73.59
29569;BME280;16501;51.462;14.346;2023-07-30T10:27:08;99623.97;;;24.47;71.71
29569;BME280;16501;51.462;14.346;2023-07-30T10:29:39;99623.41;;;24.23;70.60
29569;BME280;16501;51.462;14.346;2023-07-30T10:32:06;99625.06;;;24.09;70.81
29569;BME280;16501;51.462;14.346;2023-07-30T10:34:45;99619.25;;;23.92;70.80
29569;BME280;16501;51.462;14.346;2023-07-30T10:37:17;99622.84;;;23.67;71.92
29569;BME280;16501;51.462;14.346;2023-07-30T10:39:42;99627.19;;;23.68;70.24
29569;BME280;16501;51.462;14.346;2023-07-30T10:42:08;99626.28;;;23.65;70.99
29569;BME280;16501;51.462;14.346;2023-07-30T10:44:34;99632.78;;;23.58;68.98
29569;BME280;16501;51.462;14.346;2023-07-30T10:47:01;99625.81;;;23.77;68.87
29569;BME280;16501;51.462;14.346;2023-07-30T10:49:27;99628.84;;;23.86;70.69
29569;BME280;16501;51.462;14.346;2023-07-30T10:51:53;99633.16;;;23.62;68.43
29569;BME280;16501;51.462;14.346;2023-07-30T10:54:19;99627.72;;;23.82;67.81
29569;BME280;16501;51.462;14.346;2023-07-30T10:56:45;99612.41;;;23.87;67.53
29569;BME280;16501;51.462;14.346;2023-07-30T10:59:11;99629.72;;;23.97;66.76
29569;BME280;16501;51.462;14.346;2023-07-30T11:01:38;99623.59;;;24.00;67.19
29569;BME280;16501;51.462;14.346;2023-07-30T11:04:14;99625.59;;;23.82;64.31
29569;BME280;16501;51.462;14.346;2023-07-30T11:06:47;99619.06;;;23.89;65.72
29569;BME280;16501;51.462;14.346;2023-07-30T11:09:21;99619.25;;;23.92;63.78
29569;BME280;16501;51.462;14.346;2023-07-30T11:11:48;99630.59;;;24.07;63.24
29569;BME280;16501;51.462;14.346;2023-07-30T11:14:18;99611.56;;;24.02;60.96
29569;BME280;16501;51.462;14.346;2023-07-30T11:16:59;99626.38;;;24.08;61.29
29569;BME280;16501;51.462;14.346;2023-07-30T11:19:26;99624.50;;;24.03;61.01
29569;BME280;16501;51.462;14.346;2023-07-30T11:21:53;99610.47;;;23.89;59.61
29569;BME280;16501;51.462;14.346;2023-07-30T11:24:19;99612.34;;;24.20;59.22
29569;BME280;16501;51.462;14.346;2023-07-30T11:26:44;99611.16;;;24.48;60.27
29569;BME280;16501;51.462;14.346;2023-07-30T11:29:17;99616.19;;;24.82;58.10
29569;BME280;16501;51.462;14.346;2023-07-30T11:31:44;99611.13;;;24.91;57.93
29569;BME280;16501;51.462;14.346;2023-07-30T11:34:10;99608.31;;;25.00;56.40
29569;BME280;16501;51.462;14.346;2023-07-30T11:36:36;99600.47;;;25.18;59.58
29569;BME280;16501;51.462;14.346;2023-07-30T11:39:02;99618.09;;;25.32;57.80
29569;BME280;16501;51.462;14.346;2023-07-30T11:41:27;99606.41;;;25.48;58.01
29569;BME280;16501;51.462;14.346;2023-07-30T11:43:54;99613.19;;;25.43;57.51
29569;BME280;16501;51.462;14.346;2023-07-30T11:46:19;99609.91;;;25.29;57.13
29569;BME280;16501;51.462;14.346;2023-07-30T11:48:51;99619.03;;;25.35;59.65
29569;BME280;16501;51.462;14.346;2023-07-30T11:51:24;99614.72;;;25.44;57.00
29569;BME280;16501;51.462;14.346;2023-07-30T11:53:51;99607.06;;;25.56;56.39
29569;BME280;16501;51.462;14.346;2023-07-30T11:56:18;99604.97;;;25.56;56.26
29569;BME280;16501;51.462;14.346;2023-07-30T11:58:45;99600.53;;;25.46;56.09
29569;BME280;16501;51.462;14.346;2023-07-30T12:01:11;99602.88;;;25.57;55.35
29569;BME280;16501;51.462;14.346;2023-07-30T12:03:37;99586.59;;;25.42;54.57
29569;BME280;16501;51.462;14.346;2023-07-30T12:06:05;99602.06;;;25.47;51.79
29569;BME280;16501;51.462;14.346;2023-07-30T12:08:33;99607.16;;;25.66;51.45
29569;BME280;16501;51.462;14.346;2023-07-30T12:11:02;99584.63;;;25.62;51.93
29569;BME280;16501;51.462;14.346;2023-07-30T12:13:28;99596.28;;;25.74;51.10
29569;BME280;16501;51.462;14.346;2023-07-30T12:15:54;99578.47;;;25.75;51.88
29569;BME280;16501;51.462;14.346;2023-07-30T12:18:21;99584.38;;;25.77;53.09
29569;BME280;16501;51.462;14.346;2023-07-30T12:20:47;99581.63;;;25.97;52.82
29569;BME280;16501;51.462;14.346;2023-07-30T12:23:13;99580.78;;;25.87;50.94
29569;BME280;16501;51.462;14.346;2023-07-30T12:25:38;99562.72;;;25.94;49.32
29569;BME280;16501;51.462;14.346;2023-07-30T12:28:04;99559.00;;;26.11;47.56
29569;BME280;16501;51.462;14.346;2023-07-30T12:30:29;99560.19;;;25.81;45.29
29569;BME280;16501;51.462;14.346;2023-07-30T12:32:55;99570.88;;;25.98;47.52
29569;BME280;16501;51.462;14.346;2023-07-30T12:35:20;99539.72;;;25.94;48.53
29569;BME280;16501;51.462;14.346;2023-07-30T12:37:46;99540.97;;;26.10;48.45
29569;BME280;16501;51.462;14.346;2023-07-30T12:40:11;99562.34;;;26.27;47.39